createdAt,value
2018-01-10T04:30:15.684Z,17.62
2018-01-10T04:32:43.391Z,14.93
2018-01-10T04:35:11.050Z,16.62
2018-01-10T04:37:38.732Z,15.63
2018-01-10T04:40:07.156Z,14.57
2018-01-10T04:42:34.860Z,18.25
2018-01-10T04:45:02.544Z,20.20
2018-01-10T04:47:31.032Z,19.45
2018-01-10T04:49:58.684Z,20.73
2018-01-10T04:52:27.105Z,16.75
2018-01-10T04:54:54.788Z,15.35
2018-01-10T04:57:22.444Z,15.35
2018-01-10T04:59:50.149Z,18.62
2018-01-10T05:02:17.834Z,16.37
2018-01-10T05:04:45.524Z,15.77
2018-01-10T05:07:13.148Z,18.58
2018-01-10T05:09:40.795Z,18.37
2018-01-10T05:12:08.471Z,20.52
2018-01-10T05:14:36.148Z,18.00
2018-01-10T05:17:03.780Z,19.90
2018-01-10T05:19:31.431Z,18.15
2018-01-10T05:21:59.873Z,18.73
2018-01-10T05:24:27.524Z,15.88
2018-01-10T05:26:55.152Z,15.05
2018-01-10T05:29:22.884Z,14.77
2018-01-10T05:31:51.303Z,15.23
2018-01-10T05:34:18.960Z,15.85
2018-01-10T05:36:46.612Z,15.57
2018-01-10T05:39:14.259Z,13.93
2018-01-10T05:41:41.912Z,13.38
2018-01-10T05:44:10.364Z,15.38
2018-01-10T05:46:37.999Z,18.25
2018-01-10T05:49:05.757Z,17.08
2018-01-10T05:51:33.420Z,15.98
2018-01-10T05:54:01.068Z,18.62
2018-01-10T05:56:28.719Z,18.23
2018-01-10T05:58:56.400Z,18.23
2018-01-10T06:01:24.821Z,15.85
2018-01-10T06:03:53.220Z,17.40
2018-01-10T06:06:21.021Z,18.58
2018-01-10T06:08:48.700Z,17.65
2018-01-10T06:11:16.444Z,15.68
2018-01-10T06:13:44.133Z,15.27
2018-01-10T06:16:11.765Z,16.87
2018-01-10T06:18:39.422Z,15.07
2018-01-10T06:21:07.108Z,14.00
2018-01-10T06:23:34.764Z,15.55
2018-01-10T06:26:02.440Z,16.48
2018-01-10T06:28:30.071Z,14.45
2018-01-10T06:30:57.700Z,14.45
2018-01-10T06:33:25.372Z,12.63
2018-01-10T06:35:53.005Z,17.08
2018-01-10T06:38:21.520Z,14.80
2018-01-10T06:40:49.160Z,16.58
2018-01-10T06:43:16.784Z,17.90
2018-01-10T06:45:44.480Z,16.92
2018-01-10T06:48:12.139Z,15.75
2018-01-10T06:50:39.773Z,15.70
2018-01-10T06:53:08.216Z,20.20
2018-01-10T06:55:35.869Z,20.27
2018-01-10T06:58:03.497Z,21.58
2018-01-10T07:00:31.177Z,23.05
2018-01-10T07:02:58.835Z,19.90
2018-01-10T07:05:26.492Z,17.08
2018-01-10T07:07:54.220Z,16.85
2018-01-10T07:10:22.640Z,18.17
2018-01-10T07:12:50.322Z,17.55
2018-01-10T07:15:18.002Z,20.35
2018-01-10T07:17:45.633Z,19.45
2018-01-10T07:20:13.327Z,21.42
2018-01-10T07:22:40.980Z,17.42
2018-01-10T07:25:08.637Z,16.42
2018-01-10T07:27:36.338Z,14.85
2018-01-10T07:30:04.621Z,15.85
2018-01-10T07:32:32.253Z,19.77
2018-01-10T07:35:00.676Z,24.80
2018-01-10T07:37:28.324Z,19.85
2018-01-10T07:39:55.956Z,14.87
2018-01-10T07:42:24.392Z,15.82
2018-01-10T07:44:52.024Z,15.13
2018-01-10T07:47:19.702Z,16.55
2018-01-10T07:49:47.328Z,17.05
2018-01-10T07:52:14.958Z,15.18
2018-01-10T07:54:42.632Z,15.73
2018-01-10T07:57:11.028Z,19.50
2018-01-10T07:59:38.832Z,20.67
2018-01-10T08:02:06.464Z,18.52
2018-01-10T08:04:34.116Z,20.92
2018-01-10T08:07:01.824Z,20.62
2018-01-10T08:09:29.459Z,23.15
2018-01-10T08:11:57.084Z,21.27
2018-01-10T08:14:25.539Z,21.42
2018-01-10T08:16:53.187Z,23.50
2018-01-10T08:19:20.852Z,30.37
2018-01-10T08:21:48.552Z,21.25
2018-01-10T08:24:16.188Z,15.05
2018-01-10T08:26:43.832Z,16.55
2018-01-10T08:29:12.320Z,17.40
2018-01-10T08:31:40.848Z,18.30
2018-01-10T08:34:08.507Z,16.40
2018-01-10T08:36:36.169Z,18.77
2018-01-10T08:39:03.796Z,16.95
2018-01-10T08:41:32.217Z,14.60
2018-01-10T08:43:59.872Z,15.98
2018-01-10T08:46:27.524Z,17.48
2018-01-10T08:48:55.219Z,14.43
2018-01-10T08:51:22.857Z,14.00
2018-01-10T08:53:50.508Z,15.80
2018-01-10T08:56:18.213Z,17.48
2018-01-10T08:58:45.864Z,15.23
2018-01-10T09:01:15.224Z,16.42
2018-01-10T09:03:42.879Z,14.68
2018-01-10T09:06:10.529Z,18.55
2018-01-10T09:08:38.953Z,16.62
2018-01-10T09:11:06.648Z,14.95
2018-01-10T09:13:34.276Z,15.60
2018-01-10T09:16:01.900Z,18.20
2018-01-10T09:18:29.573Z,15.60
2018-01-10T09:20:57.200Z,14.30
2018-01-10T09:23:25.637Z,19.10
2018-01-10T09:25:53.344Z,54.42
2018-01-10T09:28:21.763Z,37.10
2018-01-10T09:30:49.451Z,28.02
2018-01-10T09:33:17.259Z,20.90
2018-01-10T09:35:45.746Z,15.43
2018-01-10T09:38:13.404Z,18.73
2018-01-10T09:40:41.270Z,17.30
2018-01-10T09:43:09.564Z,17.15
2018-01-10T09:45:37.346Z,16.33
2018-01-10T09:48:05.094Z,16.35
2018-01-10T09:50:32.744Z,16.25
2018-01-10T09:53:00.476Z,18.48
2018-01-10T09:55:28.896Z,18.33
2018-01-10T09:57:56.529Z,18.92
2018-01-10T10:00:24.227Z,17.05
2018-01-10T10:02:52.112Z,16.75
2018-01-10T10:05:19.901Z,18.83
2018-01-10T10:07:48.543Z,19.50
2018-01-10T10:10:17.072Z,20.12
2018-01-10T10:12:45.566Z,18.60
2018-01-10T10:15:13.332Z,20.15
2018-01-10T10:17:41.088Z,28.50
2018-01-10T10:20:08.859Z,22.27
2018-01-10T10:22:36.576Z,21.00
2018-01-10T10:25:04.232Z,20.25
2018-01-10T10:27:31.908Z,20.48
2018-01-10T10:29:59.591Z,17.20
2018-01-10T10:32:28.009Z,16.02
2018-01-10T10:34:55.668Z,18.33
2018-01-10T10:37:23.344Z,17.62
2018-01-10T10:39:50.976Z,15.48
2018-01-10T10:42:18.610Z,14.15
2018-01-10T10:44:47.078Z,14.55
2018-01-10T10:47:15.477Z,13.95
2018-01-10T10:49:43.113Z,11.55
2018-01-10T10:52:11.580Z,12.30
2018-01-10T10:54:39.209Z,12.13
2018-01-10T10:57:06.864Z,11.20
2018-01-10T10:59:34.526Z,10.25
2018-01-10T11:02:02.177Z,9.63
2018-01-10T11:04:32.299Z,9.15
2018-01-10T11:07:00.350Z,9.57
2018-01-10T11:09:28.076Z,8.35
2018-01-10T11:11:56.556Z,7.95
2018-01-10T11:14:24.212Z,6.78
2018-01-10T11:16:51.868Z,7.53
2018-01-10T11:19:19.534Z,6.55
2018-01-10T11:21:47.171Z,6.03
2018-01-10T11:24:14.830Z,4.70
2018-01-10T11:26:42.544Z,5.12
2018-01-10T11:29:10.173Z,5.03
2018-01-10T11:31:37.811Z,4.65
2018-01-10T11:34:05.545Z,4.12
2018-01-10T11:36:33.218Z,4.75
2018-01-10T11:39:00.840Z,4.07
2018-01-10T11:41:29.251Z,3.97
2018-01-10T11:43:56.873Z,3.25
2018-01-10T11:46:25.264Z,2.90
2018-01-10T11:48:52.956Z,3.40
2018-01-10T11:51:20.577Z,3.30
2018-01-10T11:53:48.984Z,3.75
2018-01-10T11:56:16.673Z,3.25
2018-01-10T11:58:44.321Z,3.55
2018-01-10T12:01:11.949Z,2.80
2018-01-10T12:03:39.616Z,2.03
2018-01-10T12:06:07.293Z,2.72
2018-01-10T12:08:35.112Z,2.67
2018-01-10T12:11:03.683Z,3.03
2018-01-10T12:13:31.315Z,2.65
2018-01-10T12:15:59.008Z,1.80
2018-01-10T12:18:26.675Z,3.25
2018-01-10T12:20:55.112Z,3.33
2018-01-10T12:23:22.801Z,2.25
2018-01-10T12:25:50.448Z,2.35
2018-01-10T12:28:18.096Z,2.58
2018-01-10T12:30:45.800Z,2.28
2018-01-10T12:33:14.220Z,2.22
2018-01-10T12:35:41.893Z,2.45
2018-01-10T12:38:09.593Z,2.20
2018-01-10T12:40:37.993Z,4.10
2018-01-10T12:43:05.616Z,2.50
2018-01-10T12:45:33.296Z,2.62
2018-01-10T12:48:01.707Z,2.83
2018-01-10T12:50:29.361Z,3.10
2018-01-10T12:52:57.040Z,2.30
2018-01-10T12:55:24.710Z,3.10
2018-01-10T12:57:52.340Z,2.90
2018-01-10T13:00:20.008Z,2.70
2018-01-10T13:02:47.656Z,2.35
2018-01-10T13:05:15.284Z,2.35
2018-01-10T13:07:42.956Z,2.95
2018-01-10T13:10:11.348Z,2.60
2018-01-10T13:12:39.827Z,2.83
2018-01-10T13:15:08.214Z,2.70
2018-01-10T13:17:35.856Z,2.30
2018-01-10T13:20:04.537Z,2.10
2018-01-10T13:22:32.932Z,2.25
2018-01-10T13:25:00.575Z,2.25
2018-01-10T13:27:29.034Z,2.08
2018-01-10T13:29:56.728Z,2.87
2018-01-10T13:32:25.128Z,3.00
2018-01-10T13:34:52.908Z,3.47
2018-01-10T13:37:20.555Z,3.20
2018-01-10T13:39:48.200Z,2.75
2018-01-10T13:42:15.889Z,3.22
2018-01-10T13:44:43.545Z,2.40
2018-01-10T13:47:11.184Z,3.70
2018-01-10T13:49:38.878Z,3.70
2018-01-10T13:52:07.297Z,3.50
2018-01-10T13:54:35.755Z,3.60
2018-01-10T13:57:03.600Z,2.83
2018-01-10T13:59:31.234Z,2.08
2018-01-10T14:01:58.895Z,2.10
2018-01-10T14:04:26.604Z,2.10
2018-01-10T14:06:54.233Z,2.50
2018-01-10T14:09:21.880Z,2.15
2018-01-10T14:11:49.548Z,3.40
2018-01-10T14:14:17.172Z,2.50
2018-01-10T14:16:45.600Z,2.58
2018-01-10T14:19:13.224Z,2.95
2018-01-10T14:21:40.873Z,2.17
2018-01-10T14:24:09.332Z,2.40
2018-01-10T14:26:36.983Z,2.42
2018-01-10T14:29:04.613Z,3.05
2018-01-10T14:31:32.288Z,2.90
2018-01-10T14:33:59.908Z,3.30
2018-01-10T14:36:27.556Z,4.00
2018-01-10T14:38:57.004Z,3.92
2018-01-10T14:41:24.676Z,3.60
2018-01-10T14:43:52.301Z,4.20
2018-01-10T14:46:20.175Z,3.60
2018-01-10T14:48:47.808Z,3.60
2018-01-10T14:51:15.432Z,4.35
2018-01-10T14:53:43.133Z,3.62
2018-01-10T14:56:10.764Z,4.03
2018-01-10T14:58:38.424Z,3.83
2018-01-10T15:01:06.100Z,3.47
2018-01-10T15:03:34.493Z,3.30
2018-01-10T15:06:02.165Z,4.25
2018-01-10T15:08:29.789Z,3.58
2018-01-10T15:10:58.180Z,3.92
2018-01-10T15:13:26.618Z,6.90
2018-01-10T15:15:54.240Z,5.62
2018-01-10T15:18:21.864Z,5.50
2018-01-10T15:20:49.532Z,5.28
2018-01-10T15:23:17.920Z,4.12
2018-01-10T15:25:46.304Z,5.93
2018-01-10T15:28:13.957Z,3.70
2018-01-10T15:30:42.344Z,3.40
2018-01-10T15:33:09.988Z,4.18
2018-01-10T15:35:38.379Z,3.00
2018-01-10T15:38:06.084Z,3.30
2018-01-10T15:40:33.725Z,6.25
2018-01-10T15:43:01.358Z,4.60
2018-01-10T15:45:29.046Z,2.90
2018-01-10T15:47:56.679Z,4.15
2018-01-10T15:50:24.352Z,3.95
2018-01-10T15:52:51.980Z,3.70
2018-01-10T15:55:20.372Z,5.65
2018-01-10T15:57:48.869Z,12.98
2018-01-10T16:00:16.596Z,69.47
2018-01-10T16:02:45.049Z,17.20
2018-01-10T16:05:12.678Z,7.68
2018-01-10T16:07:40.309Z,8.45
2018-01-10T16:10:08.729Z,4.50
2018-01-10T16:12:36.812Z,5.30
2018-01-10T16:15:05.657Z,2.95
2018-01-10T16:17:33.416Z,2.85
2018-01-10T16:20:01.115Z,2.47
2018-01-10T16:22:29.576Z,3.30
2018-01-10T16:24:57.200Z,3.00
2018-01-10T16:27:25.746Z,3.30
2018-01-10T16:29:54.236Z,3.08
2018-01-10T16:32:21.956Z,2.50
2018-01-10T16:34:49.584Z,4.25
2018-01-10T16:37:17.996Z,4.32
2018-01-10T16:39:45.625Z,5.45
2018-01-10T16:42:14.160Z,6.82
2018-01-10T16:44:41.940Z,5.22
2018-01-10T16:47:09.985Z,5.05
2018-01-10T16:49:37.624Z,4.40
2018-01-10T16:52:05.252Z,3.45
2018-01-10T16:54:33.805Z,5.62
2018-01-10T16:57:01.432Z,6.85
2018-01-10T16:59:29.116Z,6.05
2018-01-10T17:01:56.811Z,6.93
2018-01-10T17:04:24.460Z,4.65
2018-01-10T17:06:52.125Z,4.25
2018-01-10T17:09:19.868Z,4.03
2018-01-10T17:11:47.638Z,4.90
2018-01-10T17:14:15.322Z,5.28
2018-01-10T17:16:42.970Z,5.47
2018-01-10T17:19:10.609Z,5.20
2018-01-10T17:21:38.520Z,5.32
2018-01-10T17:24:06.921Z,5.60
2018-01-10T17:26:34.588Z,5.05
2018-01-10T17:29:02.212Z,4.65
2018-01-10T17:31:30.629Z,5.47
2018-01-10T17:33:58.252Z,4.57
2018-01-10T17:36:26.640Z,6.80
2018-01-10T17:38:55.302Z,6.53
2018-01-10T17:41:22.928Z,6.60
2018-01-10T17:43:50.562Z,6.03
2018-01-10T17:46:18.212Z,6.78
2018-01-10T17:48:45.894Z,6.55
2018-01-10T17:51:13.609Z,8.55
2018-01-10T17:53:42.107Z,12.02
2018-01-10T17:56:09.892Z,16.90
2018-01-10T17:58:37.593Z,17.52
2018-01-10T18:01:06.365Z,15.50
2018-01-10T18:03:34.086Z,18.58
2018-01-10T18:06:01.791Z,14.87
2018-01-10T18:08:29.558Z,10.75
2018-01-10T18:10:57.327Z,10.52
2018-01-10T18:13:25.185Z,11.60
2018-01-10T18:15:53.009Z,11.48
2018-01-10T18:18:20.948Z,11.23
2018-01-10T18:20:48.859Z,9.98
2018-01-10T18:23:16.769Z,11.90
2018-01-10T18:25:44.670Z,13.80
2018-01-10T18:28:12.557Z,12.65
2018-01-10T18:30:40.441Z,10.45
2018-01-10T18:33:09.089Z,19.37
2018-01-10T18:35:36.935Z,37.17
2018-01-10T18:38:04.760Z,32.30
2018-01-10T18:40:32.673Z,21.33
2018-01-10T18:43:00.860Z,17.02
2018-01-10T18:45:28.760Z,19.60
2018-01-10T18:47:57.469Z,11.43
2018-01-10T18:50:25.401Z,11.00
2018-01-10T18:52:56.234Z,11.68
2018-01-10T18:55:25.039Z,9.82
2018-01-10T18:57:53.760Z,8.18
2018-01-10T19:00:21.704Z,8.93
2018-01-10T19:02:49.735Z,9.82
2018-01-10T19:05:17.679Z,11.25
2018-01-10T19:07:46.389Z,14.45
2018-01-10T19:10:14.431Z,16.55
2018-01-10T19:12:42.387Z,14.23
2018-01-10T19:15:10.309Z,12.10
2018-01-10T19:17:38.966Z,11.35
2018-01-10T19:20:06.837Z,15.55
2018-01-10T19:22:34.593Z,9.73
2018-01-10T19:25:02.303Z,10.57
2018-01-10T19:27:29.976Z,13.50
2018-01-10T19:29:57.621Z,16.85
2018-01-10T19:32:25.301Z,14.02
2018-01-10T19:34:52.955Z,16.02
2018-01-10T19:37:20.636Z,23.35
2018-01-10T19:39:49.100Z,25.77
2018-01-10T19:42:16.749Z,25.02
2018-01-10T19:44:44.384Z,23.12
2018-01-10T19:47:12.077Z,23.25
2018-01-10T19:49:39.709Z,21.15
2018-01-10T19:52:07.369Z,17.05
2018-01-10T19:54:35.107Z,19.17
2018-01-10T19:57:02.854Z,17.58
2018-01-10T19:59:30.510Z,19.45
2018-01-10T20:01:58.158Z,18.55
2018-01-10T20:04:25.812Z,17.52
2018-01-10T20:06:53.477Z,18.77
2018-01-10T20:09:21.873Z,16.75
2018-01-10T20:11:49.559Z,15.07
2018-01-10T20:14:17.265Z,13.10
2018-01-10T20:16:44.897Z,11.15
2018-01-10T20:19:13.297Z,11.40
2018-01-10T20:21:41.124Z,10.50
2018-01-10T20:24:08.757Z,10.23
2018-01-10T20:26:36.392Z,9.57
2018-01-10T20:29:04.161Z,9.18
2018-01-10T20:31:32.566Z,8.73
2018-01-10T20:34:00.206Z,11.70
2018-01-10T20:36:28.650Z,11.38
2018-01-10T20:38:56.758Z,11.55
2018-01-10T20:41:25.173Z,12.68
2018-01-10T20:43:52.866Z,11.40
2018-01-10T20:46:20.497Z,13.38
2018-01-10T20:48:48.130Z,12.52
2018-01-10T20:51:15.786Z,10.63
2018-01-10T20:53:43.490Z,9.13
2018-01-10T20:56:11.152Z,11.32
2018-01-10T20:58:38.809Z,12.52
2018-01-10T21:01:06.449Z,13.98
2018-01-10T21:03:34.129Z,14.77
2018-01-10T21:06:01.770Z,15.68
2018-01-10T21:08:29.431Z,14.85
2018-01-10T21:10:57.113Z,11.98
2018-01-10T21:13:24.766Z,14.15
2018-01-10T21:15:52.430Z,11.30
2018-01-10T21:18:20.113Z,11.43
2018-01-10T21:20:47.756Z,10.48
2018-01-10T21:23:15.420Z,9.10
2018-01-10T21:25:43.101Z,11.30
2018-01-10T21:28:10.750Z,10.02
2018-01-10T21:30:38.385Z,11.50
2018-01-10T21:33:06.049Z,13.50
2018-01-10T21:35:33.688Z,13.45
2018-01-10T21:38:01.325Z,13.77
2018-01-10T21:40:29.792Z,14.52
2018-01-10T21:42:57.452Z,14.00
2018-01-10T21:45:25.084Z,14.32
2018-01-10T21:47:52.747Z,15.40
2018-01-10T21:50:20.392Z,12.20
2018-01-10T21:52:48.055Z,13.90
2018-01-10T21:55:15.745Z,12.70
2018-01-10T21:57:43.387Z,10.80
2018-01-10T22:00:11.027Z,11.65
2018-01-10T22:02:38.708Z,10.75
2018-01-10T22:05:06.355Z,9.82
2018-01-10T22:07:34.074Z,9.48
2018-01-10T22:10:02.482Z,9.77
2018-01-10T22:12:30.139Z,10.75
2018-01-10T22:14:57.830Z,10.32
2018-01-10T22:17:25.513Z,10.55
2018-01-10T22:19:53.942Z,10.32
2018-01-10T22:22:21.618Z,10.32
2018-01-10T22:24:49.250Z,11.15
2018-01-10T22:27:16.896Z,12.45
2018-01-10T22:29:45.352Z,11.75
2018-01-10T22:32:12.996Z,12.13
2018-01-10T22:34:40.637Z,10.77
2018-01-10T22:37:08.314Z,14.10
2018-01-10T22:39:35.989Z,10.18
2018-01-10T22:42:03.669Z,9.75
2018-01-10T22:44:32.091Z,44.40
2018-01-10T22:46:59.737Z,9.80
2018-01-10T22:49:27.425Z,9.40
2018-01-10T22:51:55.075Z,9.65
2018-01-10T22:54:22.726Z,11.43
2018-01-10T22:56:50.392Z,12.05
2018-01-10T22:59:18.093Z,12.50
2018-01-10T23:01:45.750Z,12.68
2018-01-10T23:04:13.389Z,12.73
2018-01-10T23:06:41.082Z,10.57
2018-01-10T23:09:08.729Z,13.73
2018-01-10T23:11:36.374Z,13.32
2018-01-10T23:14:04.140Z,12.20
2018-01-10T23:16:32.590Z,11.75
2018-01-10T23:19:00.235Z,15.57
2018-01-10T23:21:27.913Z,21.95
2018-01-10T23:23:55.570Z,16.30
2018-01-10T23:26:23.369Z,15.75
2018-01-10T23:28:51.021Z,11.43
